Ana Sayfa
METAR-TAF:

METAR-TAF

Havaalanları :

Aydın Çıldır Havalimanı

Aydın, Türkiye

Enlem: 37-48-54N, Boylam: 27-53-21E, yükseklik: 31 m

Güncel hava durumu gözlemi

Rapor saat 07:50 UTC de 1 saat ve 3 dakika önce yapıldı.
Rüzgar değişken yönden 1 kt
Sıcaklık 30°C
Nem 46%
Basınç 1007 hPa
Görüş mesafesi 10 km veya daha fazla
1500 m altında bulut yok ve kümülonimbus yok

METAR: LTBD 150750Z VRB01KT CAVOK 30/17 Q1007

Saat: 11:53 (08:53 UTC)

Tahmin

Rapor saat 07:40 UTC de 1 saat ve 13 dakika önce yapıldı.
Ayın 15'si saat 09 UTC'den ayın 15'si saat 18 UTC'ye kadar geçerli Tahmin
Rüzgar değişken yönden 2 kt
Görüş mesafesi 10 km veya daha fazla
1500 m altında bulut yok ve kümülonimbus yok
Dönüşüyor
ayın 15'si saat 10 UTC'den ayın 15'si saat 12 UTC'ye kadar
Rüzgar batıdan 12 kt

TAF: LTBD 150740Z 1509/1518 VRB02KT CAVOK BECMG 1510/1512 27012KT

4.000'den fazla havaalanı için hava durumu gözlemleri ve tahminleri (METAR ve TAF raporları).

Kullanılabilir istasyonlar harita üzerinde sarı ve kırmızı noktalarla gösterilir.

İstasyonun adını görmek için fareyi noktanın üzerinde gezdirin.

Sonrasında hava gözlem ve tahminlerini görmek için tıklayın.

Haritayı değiştirmek için: yaklaştırmak için siyah artı işaretli yeşil düğmeye ve uzaklaştırmak için de eksi işaretli düğmeye hızla tıklayın; bitişik haritalar için yeşil okları kullanın.


METAR-TAF: